KPIB/PIB METAR and TAF weather

Enter ICAO airport designator
Station Type Date Time Source
KPIB METAR 2021/02/25 15:41 UTC NOAA

KPIB 251541Z AUTO 00000KT 2SM BR BKN003 OVC007 17/17 A3023 RMK AO2 CIG 002V006


Station Type Date Time Source
KPIB Decoded METAR 2021/02/25 15:41 UTC NOAA

Hattiesburg/Laurel, Hattiesburg-Laurel Regional Airport, MS, United States (KPIB) 31-28N 089-20W
Feb 25, 2021 - 10:41 AM EST / 2021.02.25 1541 UTC
Wind: Calm:0
Visibility: 2 mile(s):0
Sky conditions: overcast
Weather: mist
Temperature: 62 F (17 C)
Dew Point: 62 F (17 C)
Relative Humidity: 100%
Pressure (altimeter): 30.23 in. Hg (1023 hPa)
ob: KPIB 251541Z AUTO 00000KT 2SM BR BKN003 OVC007 17/17 A3023 RMK AO2 CIG 002V006
cycle: 15

Station Type Date Time Source
KPIB TAF 2021/02/25 15:36 UTC NOAA

TAF
AMD KPIB 251433Z 2515/2612 00000KT 1SM BR OVC003
FM251530 00000KT P6SM OVC007
FM251700 21005KT P6SM OVC015
FM251800 16005KT P6SM OVC050
FM260800 18003KT P6SM OVC007
FM261000 17002KT 4SM BR OVC003

Example: see airport list